G.bellini — IKGF — position and weather

sailwx.info

Track history (hours):
 
Tides and Currents Weather Stations Pressure Air Temp Water Temp Dewpoint Dewpoint Depression Visibility Wind Speed Wind Dir Waves Ship Positions

G.bellini

Last reported at 2016-Aug-28 17:33 UTC. Time now 2016-Aug-28 20:40 UTC.
Position N 42°52' E 010°30'.

; draft 3.3 m.

Type: Ship. MMSI: 247041900.

Date/timePositionNaut miles runAvg speedWind from/ knotsBaromVisibWave heightAir tempDewpointWater temp
2016-Aug-28 17:33N 42°52' E 010°30'2 1.9
2016-Aug-28 16:28N 42°54' E 010°32'6 6.4
2016-Aug-28 15:29N 42°49' E 010°26'8 7.0
2016-Aug-28 14:20N 42°56' E 010°33'2 1.3
2016-Aug-28 12:33N 42°54' E 010°31'2 2.3
2016-Aug-28 11:31N 42°56' E 010°33'4 2.3
2016-Aug-28 09:33N 42°52' E 010°30'0 0.3
2016-Aug-28 08:16N 42°52' E 010°30'3 1.7
2016-Aug-28 06:33N 42°54' E 010°33'2 1.8
2016-Aug-28 05:33N 42°56' E 010°34'4 0.4
2016-Aug-27 17:33N 42°52' E 010°30'0 0.2
2016-Aug-27 16:22N 42°52' E 010°31'4 4.6
2016-Aug-27 15:29N 42°49' E 010°27'8 1.9
2016-Aug-27 11:09N 42°56' E 010°33'5 3.3
2016-Aug-27 09:33N 42°52' E 010°29'5 5.2
2016-Aug-27 08:33N 42°56' E 010°34'1 0.7
2016-Aug-27 06:32N 42°55' E 010°33'3 0.2
2016-Aug-26 17:34N 42°52' E 010°30'2 2.1
2016-Aug-26 16:30N 42°54' E 010°33'6 5.9
2016-Aug-26 15:29N 42°49' E 010°27'5 1.7
2016-Aug-26 12:33N 42°53' E 010°32'5 0.3
2016-Aug-25 16:15N 42°49' E 010°27'8 8.2
2016-Aug-25 15:18N 42°56' E 010°33'7 9.6
2016-Aug-25 14:33N 42°50' E 010°27'2 2.2
2016-Aug-25 13:33N 42°51' E 010°29'1 0.3
2016-Aug-25 11:34N 42°51' E 010°29'2 0.1
2016-Aug-24 16:09N 42°49' E 010°27'8 7.7
2016-Aug-24 15:05N 42°56' E 010°33'714.1
2016-Aug-24 14:33N 42°50' E 010°27'2 2.0
2016-Aug-24 13:33N 42°52' E 010°29'3 0.1
2016-Aug-23 16:19N 42°49' E 010°27'8 7.8
2016-Aug-23 15:16N 42°56' E 010°33'14 7.5
2016-Aug-23 13:27N 42°43' E 010°27'11 2.2
2016-Aug-23 08:33N 42°38' E 010°14'19 1.3
2016-Aug-22 17:33N 42°52' E 010°30'1 1.1
2016-Aug-22 16:26N 42°53' E 010°32'5 5.6
2016-Aug-22 15:29N 42°49' E 010°27'0 0.0
2016-Aug-21 15:29N 42°49' E 010°27'8 6.2
2016-Aug-21 14:12N 42°56' E 010°33'3 0.7
2016-Aug-21 09:28N 42°53' E 010°31'5 0.3
2016-Aug-20 15:28N 42°50' E 010°27'5 1.7
2016-Aug-20 12:32N 42°54' E 010°31'3 2.5
2016-Aug-20 11:26N 42°56' E 010°33'8 6.9
2016-Aug-20 10:13N 42°49' E 010°27'8 7.2
2016-Aug-20 09:07N 42°56' E 010°33'610.0
2016-Aug-20 08:33N 42°51' E 010°29'1 1.0
2016-Aug-20 07:33N 42°52' E 010°30'2 1.9
2016-Aug-20 06:32N 42°53' E 010°32'5 0.3
2016-Aug-19 15:28N 42°50' E 010°27'  
Track history (hours):
 
Tides and Currents Weather Stations Pressure Air Temp Water Temp Dewpoint Dewpoint Depression Visibility Wind Speed Wind Dir Waves Ship Positions

G.bellini

Last reported at 2016-Aug-28 17:33 UTC. Time now 2016-Aug-28 20:40 UTC.
Position N 42°52' E 010°30'.

; draft 3.3 m.

Type: Ship. MMSI: 247041900.

Date/timePositionNaut miles runAvg speedWind from/ knotsBaromVisibWave heightAir tempDewpointWater temp
2016-Aug-28 17:33N 42°52' E 010°30'2 1.9
2016-Aug-28 16:28N 42°54' E 010°32'6 6.4
2016-Aug-28 15:29N 42°49' E 010°26'8 7.0
2016-Aug-28 14:20N 42°56' E 010°33'2 1.3
2016-Aug-28 12:33N 42°54' E 010°31'2 2.3
2016-Aug-28 11:31N 42°56' E 010°33'4 2.3
2016-Aug-28 09:33N 42°52' E 010°30'0 0.3
2016-Aug-28 08:16N 42°52' E 010°30'3 1.7
2016-Aug-28 06:33N 42°54' E 010°33'2 1.8
2016-Aug-28 05:33N 42°56' E 010°34'4 0.4
2016-Aug-27 17:33N 42°52' E 010°30'0 0.2
2016-Aug-27 16:22N 42°52' E 010°31'4 4.6
2016-Aug-27 15:29N 42°49' E 010°27'8 1.9
2016-Aug-27 11:09N 42°56' E 010°33'5 3.3
2016-Aug-27 09:33N 42°52' E 010°29'5 5.2
2016-Aug-27 08:33N 42°56' E 010°34'1 0.7
2016-Aug-27 06:32N 42°55' E 010°33'3 0.2
2016-Aug-26 17:34N 42°52' E 010°30'2 2.1
2016-Aug-26 16:30N 42°54' E 010°33'6 5.9
2016-Aug-26 15:29N 42°49' E 010°27'5 1.7
2016-Aug-26 12:33N 42°53' E 010°32'5 0.3
2016-Aug-25 16:15N 42°49' E 010°27'8 8.2
2016-Aug-25 15:18N 42°56' E 010°33'7 9.6
2016-Aug-25 14:33N 42°50' E 010°27'2 2.2
2016-Aug-25 13:33N 42°51' E 010°29'1 0.3
2016-Aug-25 11:34N 42°51' E 010°29'2 0.1
2016-Aug-24 16:09N 42°49' E 010°27'8 7.7
2016-Aug-24 15:05N 42°56' E 010°33'714.1
2016-Aug-24 14:33N 42°50' E 010°27'2 2.0
2016-Aug-24 13:33N 42°52' E 010°29'3 0.1
2016-Aug-23 16:19N 42°49' E 010°27'8 7.8
2016-Aug-23 15:16N 42°56' E 010°33'14 7.5
2016-Aug-23 13:27N 42°43' E 010°27'11 2.2
2016-Aug-23 08:33N 42°38' E 010°14'19 1.3
2016-Aug-22 17:33N 42°52' E 010°30'1 1.1
2016-Aug-22 16:26N 42°53' E 010°32'5 5.6
2016-Aug-22 15:29N 42°49' E 010°27'0 0.0
2016-Aug-21 15:29N 42°49' E 010°27'8 6.2
2016-Aug-21 14:12N 42°56' E 010°33'3 0.7
2016-Aug-21 09:28N 42°53' E 010°31'5 0.3
2016-Aug-20 15:28N 42°50' E 010°27'5 1.7
2016-Aug-20 12:32N 42°54' E 010°31'3 2.5
2016-Aug-20 11:26N 42°56' E 010°33'8 6.9
2016-Aug-20 10:13N 42°49' E 010°27'8 7.2
2016-Aug-20 09:07N 42°56' E 010°33'610.0
2016-Aug-20 08:33N 42°51' E 010°29'1 1.0
2016-Aug-20 07:33N 42°52' E 010°30'2 1.9
2016-Aug-20 06:32N 42°53' E 010°32'5 0.3
2016-Aug-19 15:28N 42°50' E 010°27'  

Dump ship's entire track history